createdAt,value
2022-08-05T00:02:52.286Z,10.23
2022-08-05T00:06:05.410Z,8.67
2022-08-05T00:09:19.678Z,8.65
2022-08-05T00:12:22.822Z,7.25
2022-08-05T00:15:57.551Z,7.80
2022-08-05T00:18:49.645Z,6.80
2022-08-05T00:21:54.418Z,6.40
2022-08-05T00:24:57.877Z,8.25
2022-08-05T00:28:00.694Z,6.82
2022-08-05T00:31:07.607Z,8.43
2022-08-05T00:34:54.216Z,9.43
2022-08-05T00:37:50.763Z,7.00
2022-08-05T00:41:01.973Z,6.90
2022-08-05T00:44:05.397Z,7.68
2022-08-05T00:47:08.061Z,8.25
2022-08-05T00:50:15.328Z,5.67
2022-08-05T00:54:01.375Z,5.50
2022-08-05T00:56:51.272Z,6.93
2022-08-05T00:59:55.127Z,9.05
2022-08-05T01:02:59.847Z,7.57
2022-08-05T01:06:05.445Z,7.90
2022-08-05T01:09:11.458Z,10.40
2022-08-05T01:12:19.179Z,6.60
2022-08-05T01:15:36.147Z,7.18
2022-08-05T01:18:43.543Z,6.10
2022-08-05T01:22:06.066Z,5.43
2022-08-05T01:25:14.526Z,6.60
2022-08-05T01:28:57.423Z,9.48
2022-08-05T01:32:12.530Z,8.50
2022-08-05T01:35:50.886Z,7.25
2022-08-05T01:38:50.899Z,6.70
2022-08-05T01:41:56.169Z,7.23
2022-08-05T01:45:02.427Z,7.60
2022-08-05T01:48:10.479Z,6.57
2022-08-05T01:51:17.104Z,5.55
2022-08-05T01:54:25.477Z,6.70
2022-08-05T01:58:10.298Z,6.87
2022-08-05T02:00:59.037Z,7.05
2022-08-05T02:04:04.170Z,6.57
2022-08-05T02:07:07.185Z,7.15
2022-08-05T02:10:17.483Z,7.90
2022-08-05T02:13:53.093Z,7.77
2022-08-05T02:17:08.263Z,7.43
2022-08-05T02:20:23.380Z,6.65
2022-08-05T02:23:33.557Z,6.25
2022-08-05T02:26:53.745Z,7.07
2022-08-05T02:30:01.204Z,6.70
2022-08-05T02:33:06.612Z,6.70
2022-08-05T02:36:15.670Z,7.47
2022-08-05T02:39:21.826Z,6.43
2022-08-05T02:42:27.600Z,5.87
2022-08-05T02:45:52.046Z,5.70
2022-08-05T02:48:57.167Z,7.03
2022-08-05T02:52:03.459Z,6.30
2022-08-05T02:55:10.971Z,8.38
2022-08-05T02:58:17.043Z,6.37
2022-08-05T03:01:25.452Z,6.57
2022-08-05T03:04:30.832Z,5.75
2022-08-05T03:08:00.435Z,5.95
2022-08-05T03:11:50.039Z,5.47
2022-08-05T03:14:21.413Z,7.67
2022-08-05T03:17:24.149Z,6.83
2022-08-05T03:20:28.383Z,7.78
2022-08-05T03:23:32.528Z,6.70
2022-08-05T03:26:38.373Z,5.95
2022-08-05T03:29:45.325Z,7.10
2022-08-05T03:33:06.129Z,5.47
2022-08-05T03:36:12.155Z,8.23
2022-08-05T03:39:26.806Z,7.65
2022-08-05T03:42:32.086Z,6.57
2022-08-05T03:45:58.137Z,5.30
2022-08-05T03:48:58.832Z,7.50
2022-08-05T03:52:50.074Z,9.82
2022-08-05T03:56:05.809Z,8.18
2022-08-05T03:59:02.998Z,6.03
2022-08-05T04:02:10.058Z,8.73
2022-08-05T04:05:19.011Z,9.07
2022-08-05T04:08:35.318Z,6.68
2022-08-05T04:11:50.712Z,10.40
2022-08-05T04:14:57.641Z,7.43
2022-08-05T04:18:07.006Z,7.90
2022-08-05T04:21:12.081Z,5.60
2022-08-05T04:24:27.754Z,9.40
2022-08-05T04:27:33.059Z,7.80
2022-08-05T04:30:45.492Z,6.65
2022-08-05T04:34:17.594Z,7.53
2022-08-05T04:37:12.951Z,10.53
2022-08-05T04:40:17.096Z,9.07
2022-08-05T04:43:22.699Z,10.13
2022-08-05T04:46:28.754Z,7.37
2022-08-05T04:49:38.415Z,13.93
2022-08-05T04:52:54.434Z,6.93
2022-08-05T04:56:14.466Z,8.65
2022-08-05T04:59:23.896Z,6.43
2022-08-05T05:02:37.593Z,9.30
2022-08-05T05:06:39.594Z,7.70
2022-08-05T05:09:14.073Z,11.27
2022-08-05T05:12:20.437Z,6.45
2022-08-05T05:15:59.391Z,17.00
2022-08-05T05:19:16.431Z,9.48
2022-08-05T05:22:23.636Z,12.07
2022-08-05T05:25:40.480Z,7.30
2022-08-05T05:28:44.954Z,8.45
2022-08-05T05:31:47.862Z,8.70
2022-08-05T05:34:52.377Z,7.60
2022-08-05T05:38:01.779Z,7.93
2022-08-05T05:41:07.722Z,6.73
2022-08-05T05:44:15.737Z,7.78
2022-08-05T05:48:06.534Z,7.50
2022-08-05T05:50:59.524Z,6.57
2022-08-05T05:54:19.604Z,6.27
2022-08-05T05:57:22.509Z,6.20
2022-08-05T06:00:27.544Z,7.18
2022-08-05T06:04:00.664Z,6.80
2022-08-05T06:06:57.507Z,8.60
2022-08-05T06:10:10.239Z,9.20
2022-08-05T06:13:13.673Z,5.83
2022-08-05T06:16:30.167Z,11.40
2022-08-05T06:19:35.791Z,8.20
2022-08-05T06:22:40.391Z,6.87
2022-08-05T06:26:13.360Z,7.40
2022-08-05T06:29:25.390Z,10.20
2022-08-05T06:32:29.442Z,8.45
2022-08-05T06:36:06.823Z,8.25
2022-08-05T06:38:55.373Z,6.70
2022-08-05T06:42:01.381Z,13.07
2022-08-05T06:45:08.685Z,11.23
2022-08-05T06:48:52.549Z,6.62
2022-08-05T06:51:34.825Z,9.68
2022-08-05T06:54:38.973Z,8.00
2022-08-05T06:57:57.340Z,6.97
2022-08-05T07:01:08.213Z,7.20
2022-08-05T07:04:16.023Z,9.23
2022-08-05T07:07:35.262Z,6.90
2022-08-05T07:10:53.048Z,8.05
2022-08-05T07:14:29.660Z,8.30
2022-08-05T07:18:00.303Z,7.07
2022-08-05T07:20:57.305Z,5.25
2022-08-05T07:24:03.083Z,6.43
2022-08-05T07:27:14.053Z,6.10
2022-08-05T07:30:25.408Z,9.47
2022-08-05T07:33:36.813Z,5.70
2022-08-05T07:36:40.317Z,7.68
2022-08-05T07:40:04.419Z,6.68
2022-08-05T07:43:20.504Z,8.73
2022-08-05T07:46:26.719Z,9.47
2022-08-05T07:49:29.521Z,8.23
2022-08-05T07:52:32.499Z,5.78
2022-08-05T07:56:05.159Z,6.20
2022-08-05T07:58:59.246Z,6.97
2022-08-05T08:02:03.206Z,8.93
2022-08-05T08:05:07.232Z,6.30
2022-08-05T08:08:14.301Z,11.50
2022-08-05T08:11:18.546Z,8.25
2022-08-05T08:14:30.903Z,10.52
2022-08-05T08:17:35.312Z,7.13
2022-08-05T08:20:43.308Z,7.70
2022-08-05T08:24:04.898Z,8.15
2022-08-05T08:27:09.321Z,10.05
2022-08-05T08:30:28.572Z,8.23
2022-08-05T08:33:38.261Z,7.30
2022-08-05T08:36:48.841Z,7.13
2022-08-05T08:39:57.775Z,8.63
2022-08-05T08:45:16.283Z,9.40
2022-08-05T08:46:29.375Z,7.18
2022-08-05T08:50:22.604Z,7.77
2022-08-05T08:53:08.036Z,18.70
2022-08-05T08:56:11.984Z,7.95
2022-08-05T08:59:19.738Z,9.38
2022-08-05T09:02:26.939Z,6.35
2022-08-05T09:05:38.209Z,5.90
2022-08-05T09:08:52.985Z,15.87
2022-08-05T09:12:00.147Z,9.95
2022-08-05T09:15:09.961Z,7.55
2022-08-05T09:18:13.454Z,6.43
2022-08-05T09:21:21.238Z,9.43
2022-08-05T09:24:39.821Z,6.43
2022-08-05T09:28:05.387Z,6.93
2022-08-05T09:31:22.907Z,7.37
2022-08-05T09:34:52.257Z,7.03
2022-08-05T09:38:13.002Z,6.60
2022-08-05T09:41:21.796Z,10.33
2022-08-05T09:44:35.956Z,8.82
2022-08-05T09:47:55.496Z,7.07
2022-08-05T09:51:14.805Z,7.35
2022-08-05T09:54:31.962Z,8.73
2022-08-05T09:57:46.138Z,10.40
2022-08-05T10:00:55.149Z,6.97
2022-08-05T10:04:03.546Z,9.38
2022-08-05T10:07:19.907Z,8.23
2022-08-05T10:10:32.564Z,10.03
2022-08-05T10:13:46.283Z,7.43
2022-08-05T10:16:53.216Z,7.85
2022-08-05T10:20:04.120Z,5.62
2022-08-05T10:23:34.240Z,5.90
2022-08-05T10:26:51.397Z,7.97
2022-08-05T10:30:41.596Z,5.43
2022-08-05T10:33:18.267Z,5.47
2022-08-05T10:36:25.833Z,6.60
2022-08-05T10:39:58.948Z,7.07
2022-08-05T10:43:12.554Z,6.37
2022-08-05T10:46:17.794Z,7.13
2022-08-05T10:49:27.586Z,7.30
2022-08-05T10:52:49.516Z,5.25
2022-08-05T10:56:21.333Z,7.10
2022-08-05T11:00:02.840Z,6.50
2022-08-05T11:03:25.377Z,5.73
2022-08-05T11:06:30.750Z,6.47
2022-08-05T11:09:46.655Z,6.60
2022-08-05T11:12:55.034Z,6.32
2022-08-05T11:16:22.262Z,6.63
2022-08-05T11:20:10.473Z,6.80
2022-08-05T11:24:02.879Z,8.30
2022-08-05T11:27:50.833Z,5.75
2022-08-05T11:30:58.219Z,6.07
2022-08-05T11:34:08.032Z,5.37
2022-08-05T11:38:26.653Z,6.83
2022-08-05T11:41:34.592Z,5.62
2022-08-05T11:44:52.740Z,5.62
2022-08-05T11:47:58.035Z,8.57
2022-08-05T11:51:02.438Z,4.93
2022-08-05T11:54:05.241Z,4.37
2022-08-05T11:57:24.451Z,4.82
2022-08-05T12:00:31.354Z,4.80
2022-08-05T12:03:55.826Z,8.52
2022-08-05T12:07:02.165Z,5.10
2022-08-05T12:10:09.284Z,5.43
2022-08-05T12:13:27.908Z,4.87
2022-08-05T12:16:45.373Z,6.18
2022-08-05T12:20:27.272Z,10.32
2022-08-05T12:23:14.896Z,6.83
2022-08-05T12:26:17.441Z,6.63
2022-08-05T12:29:22.747Z,8.48
2022-08-05T12:32:25.956Z,7.47
2022-08-05T12:35:39.518Z,6.25
2022-08-05T12:38:43.078Z,4.77
2022-08-05T12:41:46.783Z,5.00
2022-08-05T12:44:51.254Z,5.85
2022-08-05T12:48:17.190Z,6.57
2022-08-05T12:52:10.924Z,7.90
2022-08-05T12:54:43.345Z,8.53
2022-08-05T12:58:52.625Z,4.93
2022-08-05T13:02:01.313Z,6.10
2022-08-05T13:04:41.884Z,6.35
2022-08-05T13:07:59.734Z,5.22
2022-08-05T13:11:04.079Z,7.60
2022-08-05T13:14:36.274Z,7.67
2022-08-05T13:17:41.263Z,5.03
2022-08-05T13:20:46.266Z,8.63
2022-08-05T13:23:50.783Z,5.82
2022-08-05T13:26:55.407Z,6.67
2022-08-05T13:30:34.475Z,6.63
2022-08-05T13:34:23.836Z,5.55
2022-08-05T13:36:45.130Z,8.68
2022-08-05T13:40:14.604Z,5.57
2022-08-05T13:43:13.928Z,4.93
2022-08-05T13:46:44.069Z,4.93
2022-08-05T13:49:52.421Z,5.03
2022-08-05T13:52:56.679Z,7.55
2022-08-05T13:56:02.255Z,7.32
2022-08-05T13:59:06.004Z,7.87
2022-08-05T14:02:26.531Z,6.83
2022-08-05T14:06:04.578Z,5.12
2022-08-05T14:08:55.494Z,6.40
2022-08-05T14:12:17.128Z,6.75
2022-08-05T14:16:06.346Z,5.20
2022-08-05T14:18:44.936Z,6.47
2022-08-05T14:22:09.278Z,5.12
2022-08-05T14:25:21.666Z,9.25
2022-08-05T14:28:26.981Z,5.95
2022-08-05T14:32:03.726Z,6.60
2022-08-05T14:34:53.792Z,5.00
2022-08-05T14:37:57.683Z,5.78
2022-08-05T14:41:07.705Z,7.12
2022-08-05T14:44:20.297Z,6.57
2022-08-05T14:48:02.972Z,4.90
2022-08-05T14:50:48.282Z,5.90
2022-08-05T14:54:26.524Z,9.75
2022-08-05T14:57:15.461Z,9.00
2022-08-05T15:00:20.032Z,6.55
2022-08-05T15:03:25.529Z,5.73
2022-08-05T15:06:30.271Z,6.07
2022-08-05T15:09:52.705Z,5.00
2022-08-05T15:13:03.376Z,5.12
2022-08-05T15:16:07.845Z,5.70
2022-08-05T15:19:23.391Z,6.80
2022-08-05T15:22:28.416Z,6.10
2022-08-05T15:25:51.219Z,6.53
2022-08-05T15:28:54.671Z,5.68
2022-08-05T15:32:02.275Z,5.85
2022-08-05T15:35:10.827Z,5.63
2022-08-05T15:38:33.857Z,5.90
2022-08-05T15:41:57.451Z,8.52
2022-08-05T15:45:02.338Z,6.30
2022-08-05T15:48:05.666Z,6.53
2022-08-05T15:51:09.728Z,6.37
2022-08-05T15:54:15.206Z,5.27
2022-08-05T15:57:18.829Z,8.60
2022-08-05T16:00:29.288Z,6.47
2022-08-05T16:03:50.829Z,6.22
2022-08-05T16:06:55.583Z,4.40
2022-08-05T16:09:59.111Z,6.33
2022-08-05T16:13:01.962Z,6.20
2022-08-05T16:16:10.802Z,6.97
2022-08-05T16:19:25.254Z,5.12
2022-08-05T16:22:37.682Z,5.90
2022-08-05T16:25:40.688Z,5.77
2022-08-05T16:28:44.897Z,8.05
2022-08-05T16:31:56.838Z,5.75
2022-08-05T16:35:02.137Z,5.07
2022-08-05T16:38:21.887Z,5.07
2022-08-05T16:42:15.180Z,6.07
2022-08-05T16:44:54.323Z,6.62
2022-08-05T16:48:03.192Z,5.40
2022-08-05T16:51:09.480Z,4.90
2022-08-05T16:54:22.483Z,4.63
2022-08-05T16:57:53.813Z,7.37
2022-08-05T17:00:53.285Z,6.07
2022-08-05T17:03:56.146Z,5.57
2022-08-05T17:07:03.467Z,7.57
2022-08-05T17:10:14.081Z,6.70
2022-08-05T17:13:21.646Z,6.33
2022-08-05T17:16:39.673Z,7.03
2022-08-05T17:19:45.585Z,5.97
2022-08-05T17:22:55.406Z,7.97
2022-08-05T17:26:02.294Z,5.07
2022-08-05T17:29:09.831Z,7.90
2022-08-05T17:32:17.327Z,7.30
2022-08-05T17:35:21.165Z,8.20
2022-08-05T17:38:24.162Z,12.40
2022-08-05T17:42:28.552Z,8.60
2022-08-05T17:44:52.684Z,10.43
2022-08-05T17:47:56.321Z,10.88
2022-08-05T17:50:59.494Z,8.20
2022-08-05T17:54:04.279Z,6.80
2022-08-05T17:57:07.256Z,7.23
2022-08-05T18:00:15.353Z,8.33
2022-08-05T18:06:42.233Z,21.08
2022-08-05T18:09:59.818Z,13.05
2022-08-05T18:13:07.657Z,9.60
2022-08-05T18:16:18.111Z,11.47
2022-08-05T18:19:25.826Z,12.13
2022-08-05T18:22:46.115Z,12.35
2022-08-05T18:25:57.861Z,14.90
2022-08-05T18:29:02.498Z,17.43
2022-08-05T18:32:05.726Z,13.07
2022-08-05T18:35:08.937Z,12.45
2022-08-05T18:38:16.537Z,14.13
2022-08-05T18:41:55.477Z,7.65
2022-08-05T18:44:51.809Z,13.03
2022-08-05T18:47:59.611Z,10.90
2022-08-05T18:52:04.188Z,9.70
2022-08-05T18:54:45.922Z,15.43
2022-08-05T18:57:52.602Z,10.70
2022-08-05T19:00:58.405Z,8.77
2022-08-05T19:04:05.424Z,12.20
2022-08-05T19:07:09.221Z,13.35
2022-08-05T19:10:12.179Z,11.00
2022-08-05T19:13:15.939Z,11.18
2022-08-05T19:16:25.068Z,11.47
2022-08-05T19:19:34.110Z,14.93
2022-08-05T19:22:37.290Z,15.10
2022-08-05T19:25:49.236Z,13.25
2022-08-05T19:28:52.329Z,14.90
2022-08-05T19:31:57.381Z,18.03
2022-08-05T19:35:05.651Z,17.53
2022-08-05T19:38:09.777Z,18.50
2022-08-05T19:41:14.994Z,21.40
2022-08-05T19:44:19.892Z,18.00
2022-08-05T19:47:22.834Z,20.43
2022-08-05T19:50:27.321Z,15.27
2022-08-05T19:54:04.466Z,20.58
2022-08-05T19:56:55.881Z,14.65
2022-08-05T20:00:01.985Z,15.32
2022-08-05T20:03:14.169Z,18.43
2022-08-05T20:06:25.993Z,18.97
2022-08-05T20:09:55.180Z,21.58
2022-08-05T20:12:55.733Z,18.58
2022-08-05T20:15:59.815Z,16.70
2022-08-05T20:19:03.574Z,22.00
2022-08-05T20:22:06.423Z,20.80
2022-08-05T20:25:12.884Z,22.15
2022-08-05T20:28:15.842Z,20.67
2022-08-05T20:31:22.849Z,17.25
2022-08-05T20:34:31.802Z,23.43
2022-08-05T20:38:06.405Z,17.10
2022-08-05T20:40:57.360Z,17.23
2022-08-05T20:44:17.118Z,16.23
2022-08-05T20:47:21.087Z,19.05
2022-08-05T20:50:37.755Z,20.83
2022-08-05T20:53:48.099Z,19.83
2022-08-05T20:56:59.144Z,14.38
2022-08-05T21:00:21.066Z,14.18
2022-08-05T21:03:25.093Z,15.85
2022-08-05T21:06:29.613Z,11.87
2022-08-05T21:09:33.693Z,15.53
2022-08-05T21:12:36.855Z,12.88
2022-08-05T21:15:46.122Z,14.65
2022-08-05T21:18:54.010Z,11.18
2022-08-05T21:21:58.443Z,13.77
2022-08-05T21:25:01.092Z,12.50
2022-08-05T21:28:05.592Z,10.85
2022-08-05T21:31:09.106Z,12.63
2022-08-05T21:34:12.390Z,8.77
2022-08-05T21:37:16.259Z,10.90
2022-08-05T21:40:19.175Z,10.73
2022-08-05T21:43:24.242Z,11.60
2022-08-05T21:46:29.304Z,10.73
2022-08-05T21:49:56.840Z,11.48
2022-08-05T21:52:58.839Z,13.73
2022-08-05T21:56:16.532Z,8.27
2022-08-05T21:59:23.950Z,8.95
2022-08-05T22:02:27.935Z,12.85
2022-08-05T22:05:48.898Z,13.48
2022-08-05T22:08:52.744Z,10.60
2022-08-05T22:11:55.718Z,10.33
2022-08-05T22:14:59.668Z,12.40
2022-08-05T22:18:03.282Z,10.63
2022-08-05T22:21:19.114Z,8.98
2022-08-05T22:24:51.736Z,15.53
2022-08-05T22:28:10.438Z,7.00
2022-08-05T22:31:14.481Z,8.10
2022-08-05T22:34:25.489Z,14.50
2022-08-05T22:37:58.860Z,10.02
2022-08-05T22:40:55.289Z,8.17
2022-08-05T22:43:59.485Z,7.97
2022-08-05T22:47:06.025Z,10.05
2022-08-05T22:50:20.196Z,7.70
2022-08-05T22:53:26.158Z,9.32
2022-08-05T22:56:39.836Z,11.13
2022-08-05T22:59:51.766Z,10.17
2022-08-05T23:02:57.109Z,9.05
2022-08-05T23:06:01.389Z,8.48
2022-08-05T23:09:27.425Z,8.05
2022-08-05T23:12:29.008Z,10.03
2022-08-05T23:15:36.396Z,9.30
2022-08-05T23:18:39.076Z,10.27
2022-08-05T23:21:48.325Z,9.82
2022-08-05T23:24:54.217Z,9.98
2022-08-05T23:27:57.922Z,7.50
2022-08-05T23:31:16.444Z,7.43
2022-08-05T23:34:24.373Z,9.13
2022-08-05T23:37:36.438Z,8.15
2022-08-05T23:40:39.776Z,7.62
2022-08-05T23:44:06.440Z,7.80
2022-08-05T23:47:15.598Z,6.90
2022-08-05T23:50:20.281Z,9.07
2022-08-05T23:53:23.456Z,9.05
2022-08-05T23:56:31.230Z,8.60
